Bay Pines, Florida
Current Conditions -  °F | °C
As of 5:53 PM on Saturday 25 Oct 2014 (Local Time) from KPIE Reporting Station
Clear Clear  
Wind Chill: 75°   Ceiling: Unl
Heat Index: 75°   Visibility: 10mi
Dew Point: 53°   Wind: 10mph
Humidity: 46%   Direction: 340°NNW
Pressure: 29.95"   Gusts: NA
Location:  27.82°N, 82.78°W
Report Text: KPIE 252153Z 34009KT 10SM CLR 24/12 A2995 RMK AO2 SLP142 T02390117
Loading
Personal Weather Stations






























Interactive Weather Map
Tropical Storm Tracking
New forecast layout! Learn more

10-Day Weather Forecast

Advertisements
Track Severe Weather on mobile